Time;durP1;ratioP1;P1;durP2;ratioP2;P2;SDS_P1;SDS_P2;PMS_P1;PMS_P2;Temp;Humidity;BMP_temperature;BMP_pressure;BME280_temperature;BME280_humidity;BME280_pressure;Samples;Min_cycle;Max_cycle;Signal;HPM_P1;HPM_P2
2021/08/12 00:00:54;;;;;;;3.35;2.67;;;;;;;21.44;56.87;100282.03;4451145;32;34820;-82
2021/08/12 00:03:22;;;;;;;3.60;2.42;;;;;;;21.58;56.36;100278.22;4440480;32;34208;-83
2021/08/12 00:05:50;;;;;;;4.50;3.42;;;;;;;21.65;55.98;100277.59;4453069;32;33173;-83
2021/08/12 00:08:18;;;;;;;4.93;2.83;;;;;;;21.74;55.87;100281.34;4440474;32;33126;-80
2021/08/12 00:10:50;;;;;;;6.25;3.17;;;;;;;21.93;55.17;100278.84;4452911;32;34061;-81
2021/08/12 00:13:18;;;;;;;;;;;;;;;21.77;56.55;100282.94;4441175;32;33949;-80
2021/08/12 00:15:47;;;;;;;4.70;3.00;;;;;;;21.85;56.32;100284.00;4453041;32;34101;-81
2021/08/12 00:18:15;;;;;;;7.00;3.55;;;;;;;21.97;55.96;100274.91;4427274;32;32817;-81
2021/08/12 00:20:42;;;;;;;5.87;2.53;;;;;;;21.90;56.29;100280.94;4439932;32;33133;-81
2021/08/12 00:23:10;;;;;;;4.82;3.55;;;;;;;21.66;56.78;100287.34;4453126;32;34750;-81
2021/08/12 00:25:38;;;;;;;5.82;3.03;;;;;;;21.44;57.01;100282.88;4454321;32;33024;-82
2021/08/12 00:28:05;;;;;;;6.62;2.85;;;;;;;21.66;56.11;100283.81;4440218;32;33705;-82
2021/08/12 00:30:34;;;;;;;5.45;3.28;;;;;;;21.81;55.44;100287.06;4440420;32;34581;-81
2021/08/12 00:33:02;;;;;;;5.37;3.53;;;;;;;21.72;56.51;100289.53;4454149;32;34886;-82
2021/08/12 00:35:30;;;;;;;5.95;3.20;;;;;;;21.73;56.63;100285.84;4448831;32;33471;-82
2021/08/12 00:38:01;;;;;;;7.03;2.58;;;;;;;21.73;56.53;100285.84;4440435;32;33568;-82
2021/08/12 00:40:29;;;;;;;5.80;2.83;;;;;;;21.52;57.67;100293.00;4440487;32;34778;-83
2021/08/12 00:42:57;;;;;;;3.20;2.33;;;;;;;21.67;56.91;100285.53;4439750;32;33074;-83
2021/08/12 00:45:25;;;;;;;4.80;3.03;;;;;;;21.59;57.02;100288.81;4453275;32;33375;-83
2021/08/12 00:47:54;;;;;;;3.90;3.40;;;;;;;21.64;56.86;100289.31;4454247;32;33673;-83
2021/08/12 00:50:22;;;;;;;5.45;3.47;;;;;;;21.48;57.78;100291.53;4453084;32;33376;-83
2021/08/12 00:52:50;;;;;;;4.03;3.03;;;;;;;21.44;58.06;100293.63;4439471;32;34804;-83
2021/08/12 00:55:18;;;;;;;4.70;3.03;;;;;;;21.50;57.15;100292.25;4450838;32;34064;-82
2021/08/12 00:57:47;;;;;;;6.87;3.15;;;;;;;21.43;56.93;100293.75;4439862;32;33877;-82
2021/08/12 01:00:15;;;;;;;6.00;2.70;;;;;;;21.32;57.31;100291.09;4439909;32;33115;-83
2021/08/12 01:02:43;;;;;;;4.87;2.95;;;;;;;21.41;56.91;100293.00;4454036;32;33544;-81
2021/08/12 01:05:12;;;;;;;6.87;2.85;;;;;;;21.23;57.55;100288.13;4451345;32;34198;-81
2021/08/12 01:07:57;;;;;;;6.22;3.25;;;;;;;21.28;57.54;100284.22;4452625;32;33658;-81
2021/08/12 01:10:59;;;;;;;6.05;2.80;;;;;;;21.34;57.45;100294.50;4453766;32;35270;-81
2021/08/12 01:13:39;;;;;;;4.18;2.95;;;;;;;21.41;57.31;100284.94;4401189;32;34455;-81
2021/08/12 01:16:09;;;;;;;5.57;2.97;;;;;;;21.33;57.50;100282.06;4452086;32;33472;-82
2021/08/12 01:18:46;;;;;;;5.47;3.08;;;;;;;21.30;57.70;100283.09;4439542;32;32949;-81
2021/08/12 01:21:24;;;;;;;5.45;3.15;;;;;;;21.07;58.95;100289.47;4438543;32;33991;-81
2021/08/12 01:23:58;;;;;;;5.57;2.97;;;;;;;21.10;58.78;100281.19;4439369;32;32856;-81
2021/08/12 01:26:29;;;;;;;6.80;3.25;;;;;;;21.07;59.02;100282.25;4452582;32;33166;-81
2021/08/12 01:28:59;;;;;;;4.85;3.25;;;;;;;21.22;58.25;100283.75;4452168;32;33553;-81
2021/08/12 01:31:27;;;;;;;5.37;3.03;;;;;;;21.04;58.53;100287.91;4439395;32;33394;-80
2021/08/12 01:34:29;;;;;;;5.30;2.80;;;;;;;21.14;58.41;100288.88;4453212;32;32534;-81
2021/08/12 01:36:59;;;;;;;6.97;3.10;;;;;;;21.18;58.25;100282.28;4439088;32;33845;-81
2021/08/12 01:39:28;;;;;;;6.43;3.20;;;;;;;21.09;58.42;100285.69;4451593;32;34055;-81
2021/08/12 01:41:57;;;;;;;4.62;3.22;;;;;;;20.96;58.71;100284.97;4452156;32;34751;-80
2021/08/12 01:44:26;;;;;;;5.30;3.65;;;;;;;21.00;58.49;100281.06;4425833;32;34494;-80
2021/08/12 01:46:55;;;;;;;4.37;2.75;;;;;;;20.98;58.49;100288.34;4451867;32;33770;-80
2021/08/12 01:49:22;;;;;;;6.28;3.00;;;;;;;20.93;58.51;100285.19;4451438;32;33947;-81
2021/08/12 01:51:51;;;;;;;3.95;3.00;;;;;;;20.90;58.99;100286.31;4438799;32;34935;-80
2021/08/12 01:54:20;;;;;;;4.40;2.90;;;;;;;20.94;58.89;100287.78;4439182;32;33539;-80
2021/08/12 01:56:50;;;;;;;;;;;;;;;20.90;59.10;100286.31;4436645;32;33318;-80
2021/08/12 01:59:22;;;;;;;5.43;3.08;;;;;;;21.01;59.25;100295.34;4423676;32;35053;-80
2021/08/12 02:01:52;;;;;;;9.13;3.30;;;;;;;20.86;59.04;100294.72;4436528;32;33791;-80
2021/08/12 02:04:20;;;;;;;6.12;3.53;;;;;;;20.82;59.10;100288.72;4436152;32;32883;-80
2021/08/12 02:06:50;;;;;;;5.75;3.35;;;;;;;20.82;59.18;100291.41;4435702;32;33468;-80
2021/08/12 02:09:17;;;;;;;4.45;2.80;;;;;;;20.76;59.43;100286.53;4435394;32;33701;-79
2021/08/12 02:11:46;;;;;;;7.05;3.28;;;;;;;20.74;59.58;100291.16;4434464;32;34108;-80
2021/08/12 02:14:14;;;;;;;4.53;3.00;;;;;;;20.86;59.08;100279.47;4436290;32;33724;-80
2021/08/12 02:16:42;;;;;;;5.55;3.03;;;;;;;20.83;59.25;100284.22;4436038;32;34133;-80
2021/08/12 02:19:10;;;;;;;6.70;3.35;;;;;;;20.62;60.01;100279.56;4438068;32;34636;-80
2021/08/12 02:21:42;;;;;;;5.20;3.22;;;;;;;20.54;60.20;100290.03;4438288;32;34076;-81
2021/08/12 02:24:18;;;;;;;4.40;2.67;;;;;;;20.70;59.79;100290.56;4425510;32;33067;-80
2021/08/12 02:27:00;;;;;;;4.95;2.97;;;;;;;20.53;60.39;100291.00;4430622;32;33498;-81
2021/08/12 02:29:29;;;;;;;6.40;3.25;;;;;;;20.70;60.04;100295.91;4425145;32;34130;-80
2021/08/12 02:32:00;;;;;;;5.50;3.28;;;;;;;20.81;59.61;100291.53;4425227;32;33698;-80
2021/08/12 02:34:29;;;;;;;4.28;2.95;;;;;;;20.67;60.30;100293.47;4451114;32;34000;-80
2021/08/12 02:36:57;;;;;;;3.72;2.75;;;;;;;20.68;60.52;100292.50;4438155;32;33665;-80
2021/08/12 02:39:27;;;;;;;4.37;3.20;;;;;;;20.56;61.01;100290.78;4413201;32;32839;-80
2021/08/12 02:41:56;;;;;;;6.10;3.47;;;;;;;20.60;60.86;100288.69;4425580;32;34410;-80
2021/08/12 02:44:25;;;;;;;5.15;3.12;;;;;;;20.58;60.97;100290.66;4425599;32;33851;-81
2021/08/12 02:46:53;;;;;;;6.25;2.87;;;;;;;20.63;60.84;100289.31;4425504;32;32830;-81
2021/08/12 02:49:21;;;;;;;7.62;3.20;;;;;;;20.58;60.85;100291.50;4437994;32;33706;-80
2021/08/12 02:51:50;;;;;;;6.78;3.80;;;;;;;20.73;60.10;100293.97;4437847;32;34389;-82
2021/08/12 02:54:18;;;;;;;3.53;2.55;;;;;;;20.62;60.14;100292.97;4438301;32;34747;-80
2021/08/12 02:56:47;;;;;;;5.62;3.22;;;;;;;20.59;60.29;100287.84;4428992;32;32398;-80
2021/08/12 02:59:15;;;;;;;6.65;3.78;;;;;;;20.48;60.93;100289.66;4440542;32;33283;-80
2021/08/12 03:01:42;;;;;;;4.35;2.47;;;;;;;20.44;60.98;100289.00;4453695;32;34122;-80
2021/08/12 03:04:12;;;;;;;4.50;2.67;;;;;;;20.63;60.18;100294.69;4453390;32;32966;-81
2021/08/12 03:06:40;;;;;;;5.85;2.90;;;;;;;20.39;61.26;100296.53;4444912;32;32198;-81
2021/08/12 03:09:09;;;;;;;5.32;3.60;;;;;;;20.55;60.92;100297.09;4434928;32;33096;-81
2021/08/12 03:11:38;;;;;;;5.75;2.97;;;;;;;20.46;61.16;100301.34;4430605;32;33947;-81
2021/08/12 03:14:09;;;;;;;5.50;3.37;;;;;;;20.28;61.65;100309.94;4440152;32;34262;-81
2021/08/12 03:16:38;;;;;;;5.90;3.28;;;;;;;20.32;61.36;100306.91;4453506;32;33100;-81
2021/08/12 03:19:07;;;;;;;6.22;3.00;;;;;;;20.71;60.59;100313.72;4440384;32;34600;-81
2021/08/12 03:21:34;;;;;;;8.02;3.83;;;;;;;20.38;61.67;100317.16;4453182;32;34000;-81
2021/08/12 03:24:04;;;;;;;7.07;3.45;;;;;;;20.23;62.15;100314.78;4453052;32;33737;-81
2021/08/12 03:26:32;;;;;;;5.15;3.20;;;;;;;20.29;61.77;100312.47;4438487;32;34009;-80
2021/08/12 03:28:59;;;;;;;6.82;3.47;;;;;;;20.30;61.74;100318.69;4434850;32;33732;-80
2021/08/12 03:31:27;;;;;;;5.20;3.37;;;;;;;20.27;62.08;100318.91;4428100;32;33678;-81
2021/08/12 03:33:55;;;;;;;5.60;3.75;;;;;;;20.38;61.77;100325.19;4432947;32;33848;-82
2021/08/12 03:36:22;;;;;;;11.02;3.33;;;;;;;20.31;61.94;100333.81;4418890;32;32907;-81
2021/08/12 03:38:50;;;;;;;5.15;3.17;;;;;;;20.17;61.96;100335.69;4445653;32;33359;-81
2021/08/12 03:41:19;;;;;;;5.28;3.30;;;;;;;20.33;61.55;100340.78;4435763;32;33467;-80
2021/08/12 03:43:46;;;;;;;5.72;3.00;;;;;;;20.29;61.99;100335.75;4448587;32;33679;-81
2021/08/12 03:46:14;;;;;;;4.18;3.15;;;;;;;20.50;61.27;100342.19;4444625;32;33315;-81
2021/08/12 03:48:42;;;;;;;5.32;3.65;;;;;;;20.50;61.16;100342.19;4427173;32;32748;-81
2021/08/12 03:51:09;;;;;;;5.87;3.00;;;;;;;20.39;61.87;100345.66;4440464;32;33659;-80
2021/08/12 03:53:37;;;;;;;5.40;3.50;;;;;;;20.35;62.22;100349.56;4453180;32;33925;-81
2021/08/12 03:56:06;;;;;;;4.87;3.65;;;;;;;20.44;62.52;100345.31;4453388;32;33055;-80
2021/08/12 03:58:37;;;;;;;10.18;4.10;;;;;;;20.61;61.95;100344.94;4453379;32;34553;-81
2021/08/12 04:01:07;;;;;;;5.68;3.53;;;;;;;20.64;61.65;100342.00;4453365;32;34592;-81
2021/08/12 04:03:35;;;;;;;6.05;3.70;;;;;;;20.76;61.20;100348.25;4440336;32;33248;-81
2021/08/12 04:06:02;;;;;;;3.90;2.83;;;;;;;20.65;61.58;100341.03;4453095;32;33141;-80
2021/08/12 04:08:31;;;;;;;6.35;3.35;;;;;;;20.75;61.36;100345.66;4439363;32;34241;-81
2021/08/12 04:11:00;;;;;;;6.03;3.40;;;;;;;20.89;60.98;100350.84;4440077;32;34316;-80
2021/08/12 04:13:28;;;;;;;7.57;4.40;;;;;;;20.86;61.47;100353.78;4439022;32;35393;-81
2021/08/12 04:15:56;;;;;;;5.45;3.20;;;;;;;20.86;62.08;100354.63;4452640;32;33573;-80
2021/08/12 04:18:24;;;;;;;8.38;3.60;;;;;;;21.27;60.48;100352.31;4452654;32;34573;-81
2021/08/12 04:20:52;;;;;;;4.50;3.50;;;;;;;21.06;61.53;100353.06;4439807;32;32878;-81
2021/08/12 04:23:20;;;;;;;5.68;4.15;;;;;;;21.08;61.55;100348.44;4452814;32;33849;-80
2021/08/12 04:25:50;;;;;;;8.50;3.40;;;;;;;21.38;60.83;100352.37;4452771;32;34390;-80
2021/08/12 04:28:18;;;;;;;6.72;4.03;;;;;;;21.38;60.82;100355.06;4439964;32;33126;-81
2021/08/12 04:30:48;;;;;;;9.32;3.92;;;;;;;21.60;60.36;100357.75;4452521;32;34292;-80
2021/08/12 04:33:17;;;;;;;7.87;4.95;;;;;;;21.51;60.84;100363.84;4452778;32;34790;-81
2021/08/12 04:35:45;;;;;;;5.45;3.97;;;;;;;21.82;59.88;100369.41;4427504;32;32618;-81
2021/08/12 04:38:14;;;;;;;8.20;5.28;;;;;;;21.70;60.25;100360.53;4452392;32;35258;-80
2021/08/12 04:40:41;;;;;;;6.43;3.80;;;;;;;21.82;59.69;100362.22;4452139;32;34923;-81
2021/08/12 04:43:10;;;;;;;5.07;3.62;;;;;;;22.16;58.77;100360.31;4440043;32;32658;-81
2021/08/12 04:45:38;;;;;;;5.43;3.67;;;;;;;22.16;58.83;100354.94;4440013;32;32508;-81
2021/08/12 04:48:09;;;;;;;6.20;4.55;;;;;;;22.24;58.04;100349.78;4444077;32;32381;-82
2021/08/12 04:50:38;;;;;;;7.93;3.70;;;;;;;22.18;57.29;100352.97;4432590;32;33964;-80
2021/08/12 04:53:06;;;;;;;6.40;3.28;;;;;;;22.28;56.64;100360.28;4429157;32;33297;-82
2021/08/12 04:55:34;;;;;;;5.07;3.35;;;;;;;22.11;57.59;100359.84;4434908;32;33727;-81
2021/08/12 04:58:02;;;;;;;9.27;4.28;;;;;;;22.35;57.32;100361.47;4425400;32;35064;-81
2021/08/12 05:00:30;;;;;;;6.43;3.33;;;;;;;22.31;57.64;100354.63;4438099;32;34010;-80
2021/08/12 05:02:57;;;;;;;5.57;3.33;;;;;;;22.20;57.97;100359.06;4437149;32;34653;-80
2021/08/12 05:05:26;;;;;;;7.12;3.33;;;;;;;22.44;58.57;100360.69;4436823;32;34397;-83
2021/08/12 05:07:54;;;;;;;6.00;3.83;;;;;;;22.31;58.86;100365.38;4421287;32;33791;-83
2021/08/12 05:10:22;;;;;;;7.22;4.12;;;;;;;22.54;57.96;100367.00;4423860;32;33083;-83
2021/08/12 05:12:53;;;;;;;5.50;3.85;;;;;;;22.83;58.35;100366.34;4424089;32;33980;-83
2021/08/12 05:15:21;;;;;;;8.07;3.80;;;;;;;23.18;56.82;100364.19;4424280;32;34236;-83
2021/08/12 05:17:49;;;;;;;6.75;3.90;;;;;;;23.34;57.17;100366.37;4436472;32;34784;-83
2021/08/12 05:20:17;;;;;;;8.55;4.15;;;;;;;23.39;57.95;100365.97;4437707;32;35369;-83
2021/08/12 05:22:45;;;;;;;8.43;4.40;;;;;;;23.51;55.53;100362.22;4424555;32;33878;-83
2021/08/12 05:25:15;;;;;;;5.37;3.12;;;;;;;23.57;54.79;100361.66;4423841;32;32668;-83
2021/08/12 05:27:43;;;;;;;7.55;3.53;;;;;;;23.59;55.16;100375.84;4423840;32;33009;-82
2021/08/12 05:30:11;;;;;;;8.50;3.20;;;;;;;23.57;56.26;100376.97;4410559;32;33522;-83
2021/08/12 05:32:39;;;;;;;5.78;3.05;;;;;;;23.75;55.23;100375.38;4423901;32;33367;-82
2021/08/12 05:35:07;;;;;;;4.85;3.30;;;;;;;23.83;55.49;100378.22;4424018;32;33428;-83
2021/08/12 05:37:37;;;;;;;5.82;3.58;;;;;;;23.99;56.06;100383.09;4423911;32;34068;-83
2021/08/12 05:40:05;;;;;;;5.85;3.75;;;;;;;23.81;56.32;100380.19;4436459;32;34012;-84
2021/08/12 05:42:33;;;;;;;4.75;3.20;;;;;;;23.97;55.84;100377.81;4436868;32;33626;-83
2021/08/12 05:45:01;;;;;;;4.10;3.10;;;;;;;24.28;54.70;100375.87;4436517;32;33464;-83
2021/08/12 05:47:29;;;;;;;4.12;2.67;;;;;;;24.41;52.68;100378.34;4435208;32;33945;-83
2021/08/12 05:49:57;;;;;;;4.75;3.37;;;;;;;24.83;51.66;100382.56;4423905;32;34073;-82
2021/08/12 05:52:24;;;;;;;6.25;3.25;;;;;;;24.89;51.73;100377.44;4425364;32;34094;-82
2021/08/12 05:54:52;;;;;;;10.52;3.17;;;;;;;25.24;49.41;100379.50;4425356;32;32828;-82
2021/08/12 05:57:20;;;;;;;5.68;3.00;;;;;;;25.36;49.85;100384.75;4432870;32;33130;-84
2021/08/12 05:59:47;;;;;;;5.97;3.60;;;;;;;25.42;48.32;100389.56;4454072;32;33784;-83
2021/08/12 06:02:16;;;;;;;5.37;3.33;;;;;;;25.47;48.82;100385.41;4453974;32;34519;-84
2021/08/12 06:04:44;;;;;;;13.98;3.08;;;;;;;25.50;49.86;100386.97;4441319;32;32177;-82
2021/08/12 06:07:13;;;;;;;7.00;3.10;;;;;;;25.63;49.75;100384.75;4455003;32;33883;-82
2021/08/12 06:09:41;;;;;;;12.82;3.70;;;;;;;25.63;48.61;100382.03;4444114;32;32411;-82
2021/08/12 06:12:09;;;;;;;5.55;3.80;;;;;;;25.78;49.17;100385.16;4440463;32;34014;-82
2021/08/12 06:14:37;;;;;;;5.32;3.10;;;;;;;25.86;47.89;100387.09;4435694;32;33028;-82
2021/08/12 06:17:05;;;;;;;7.37;3.70;;;;;;;25.91;48.21;100387.47;4438156;32;34620;-82
2021/08/12 06:19:33;;;;;;;5.15;3.05;;;;;;;26.01;47.84;100388.28;4440812;32;34530;-82
2021/08/12 06:22:02;;;;;;;4.05;2.65;;;;;;;26.01;49.90;100383.72;4427879;32;33946;-81
2021/08/12 06:24:30;;;;;;;4.53;2.75;;;;;;;26.17;49.09;100385.75;4439480;32;33450;-81
2021/08/12 06:26:58;;;;;;;7.43;2.80;;;;;;;26.00;47.46;100383.88;4440969;32;33474;-81
2021/08/12 06:29:26;;;;;;;5.32;2.95;;;;;;;26.37;44.05;100382.91;4428023;32;34806;-81
2021/08/12 06:31:54;;;;;;;5.07;2.33;;;;;;;26.34;42.46;100385.91;4427276;32;33437;-81
2021/08/12 06:34:22;;;;;;;6.72;2.83;;;;;;;26.22;44.45;100383.44;4427509;32;32721;-81
2021/08/12 06:36:50;;;;;;;3.87;2.80;;;;;;;26.46;44.02;100382.84;4427226;32;33903;-81
2021/08/12 06:39:19;;;;;;;4.62;2.83;;;;;;;26.36;43.33;100381.22;4440794;32;33328;-81
2021/08/12 06:41:48;;;;;;;5.60;2.53;;;;;;;26.83;42.81;100383.69;4440740;32;34516;-80
2021/08/12 06:44:17;;;;;;;8.52;2.50;;;;;;;26.75;42.73;100385.31;4441157;32;33539;-80
2021/08/12 06:46:45;;;;;;;3.90;2.47;;;;;;;26.70;42.98;100382.22;4427935;32;33653;-82
2021/08/12 06:49:13;;;;;;;12.75;3.30;;;;;;;27.18;42.28;100378.19;4441341;32;34081;-82
2021/08/12 06:51:43;;;;;;;3.08;2.40;;;;;;;27.31;41.58;100381.31;4428278;32;33593;-82
2021/08/12 06:54:12;;;;;;;7.82;2.00;;;;;;;27.40;41.92;100384.94;4441177;32;33364;-80
2021/08/12 06:56:40;;;;;;;3.40;2.25;;;;;;;27.95;39.64;100386.34;4427003;32;33468;-81
2021/08/12 06:59:08;;;;;;;6.50;2.70;;;;;;;28.03;39.40;100387.22;4427721;32;34715;-80
2021/08/12 07:01:35;;;;;;;3.87;2.55;;;;;;;27.59;39.74;100391.97;4439646;32;33977;-81
2021/08/12 07:04:04;;;;;;;3.95;2.70;;;;;;;28.06;37.51;100391.50;4427727;32;32883;-81
2021/08/12 07:06:32;;;;;;;3.58;2.80;;;;;;;28.19;38.23;100391.84;4415611;32;32600;-81
2021/08/12 07:08:59;;;;;;;12.07;3.00;;;;;;;28.08;40.53;100393.00;4440339;32;34227;-82
2021/08/12 07:11:28;;;;;;;6.43;2.80;;;;;;;28.00;41.49;100390.25;4440918;32;33761;-82
2021/08/12 07:13:55;;;;;;;6.65;2.70;;;;;;;27.85;42.31;100385.66;4428205;32;33073;-82
2021/08/12 07:16:23;;;;;;;8.60;3.45;;;;;;;28.20;41.53;100392.69;4441211;32;33913;-82
2021/08/12 07:18:51;;;;;;;3.83;2.35;;;;;;;27.83;39.97;100384.97;4440647;32;33252;-82
2021/08/12 07:21:20;;;;;;;5.50;2.60;;;;;;;27.99;38.90;100390.44;4454599;32;33855;-81
2021/08/12 07:23:48;;;;;;;4.55;2.72;;;;;;;28.05;38.68;100395.19;4414604;32;32643;-81
2021/08/12 07:26:17;;;;;;;6.45;2.62;;;;;;;28.10;38.97;100387.41;4452627;32;34445;-80
2021/08/12 07:28:46;;;;;;;4.60;2.40;;;;;;;27.97;38.88;100396.03;4440910;32;34105;-80
2021/08/12 07:31:15;;;;;;;5.68;2.75;;;;;;;28.09;40.31;100393.84;4440575;32;33860;-81
2021/08/12 07:33:44;;;;;;;7.45;2.92;;;;;;;28.48;40.02;100402.25;4432070;32;32757;-81
2021/08/12 07:36:11;;;;;;;7.72;2.85;;;;;;;28.71;39.42;100405.19;4440992;32;33989;-81
2021/08/12 07:38:39;;;;;;;4.82;2.50;;;;;;;28.78;39.17;100403.50;4428196;32;33988;-81
2021/08/12 07:41:07;;;;;;;5.37;3.10;;;;;;;28.76;39.20;100400.06;4428152;32;33547;-81
2021/08/12 07:43:35;;;;;;;5.87;2.95;;;;;;;29.00;39.08;100403.84;4427824;32;34073;-82
2021/08/12 07:46:04;;;;;;;7.43;4.40;;;;;;;29.31;37.93;100399.37;4427674;32;32542;-82
2021/08/12 07:48:32;;;;;;;3.22;2.72;;;;;;;29.43;37.88;100396.25;4440744;32;34003;-82
2021/08/12 07:50:59;;;;;;;6.60;3.42;;;;;;;29.61;37.09;100402.34;4427894;32;33636;-82
2021/08/12 07:53:27;;;;;;;7.80;2.55;;;;;;;29.34;35.90;100396.31;4427656;32;33423;-81
2021/08/12 07:55:57;;;;;;;4.32;2.75;;;;;;;28.91;38.12;100399.37;4454098;32;33913;-81
2021/08/12 07:58:25;;;;;;;5.10;2.90;;;;;;;29.44;37.38;100400.72;4439541;32;34328;-81
2021/08/12 08:00:53;;;;;;;5.03;2.50;;;;;;;28.97;35.28;100401.47;4439817;32;33929;-81
2021/08/12 08:03:21;;;;;;;7.87;2.62;;;;;;;28.80;36.03;100406.87;4439799;32;33163;-81
2021/08/12 08:05:49;;;;;;;5.50;2.83;;;;;;;28.96;35.23;100405.19;4440192;32;34635;-81
2021/08/12 08:08:16;;;;;;;6.70;3.67;;;;;;;28.99;35.17;100393.97;4439741;32;32825;-82
2021/08/12 08:10:44;;;;;;;5.87;2.97;;;;;;;29.52;35.49;100406.09;4440146;32;33995;-84
2021/08/12 08:13:16;;;;;;;5.00;3.37;;;;;;;29.52;35.52;100403.37;4439468;32;33091;-84
2021/08/12 08:15:44;;;;;;;4.87;2.45;;;;;;;29.66;36.64;100397.22;4426695;32;32893;-83
2021/08/12 08:18:12;;;;;;;7.70;2.53;;;;;;;30.03;34.87;100412.03;4439213;32;33058;-83
2021/08/12 08:20:39;;;;;;;7.18;2.58;;;;;;;29.59;34.89;100409.87;4426259;32;33434;-82
2021/08/12 08:23:09;;;;;;;7.28;2.87;;;;;;;29.74;35.84;100412.69;4439662;32;33843;-81
2021/08/12 08:25:38;;;;;;;8.57;3.12;;;;;;;29.46;36.76;100404.94;4439796;32;33623;-81
2021/08/12 08:28:05;;;;;;;4.60;2.40;;;;;;;30.06;34.21;100411.69;4426650;32;33761;-81
2021/08/12 08:30:35;;;;;;;3.72;2.45;;;;;;;30.22;32.95;100408.91;4453619;32;33862;-81
2021/08/12 08:33:04;;;;;;;2.90;2.10;;;;;;;30.42;32.81;100414.72;4426573;32;32592;-81
2021/08/12 08:35:34;;;;;;;3.55;2.05;;;;;;;30.11;35.30;100406.56;4425044;32;33601;-81
2021/08/12 08:38:02;;;;;;;3.17;1.98;;;;;;;30.35;32.71;100403.72;4426110;32;33971;-81
2021/08/12 08:40:30;;;;;;;2.97;1.70;;;;;;;30.50;31.96;100411.94;4437986;32;33888;-81
2021/08/12 08:43:00;;;;;;;3.72;2.33;;;;;;;30.20;32.27;100408.25;4438629;32;33771;-81
2021/08/12 08:45:29;;;;;;;5.40;2.60;;;;;;;30.48;30.07;100407.69;4425419;32;34919;-81
2021/08/12 08:47:58;;;;;;;6.37;2.83;;;;;;;30.58;33.45;100411.06;4439199;32;35036;-81
2021/08/12 08:50:31;;;;;;;3.05;2.30;;;;;;;31.00;32.65;100405.09;4435426;32;91278;-81
2021/08/12 08:52:59;;;;;;;3.92;2.25;;;;;;;31.28;31.20;100409.94;4426201;32;33464;-81
2021/08/12 08:55:27;;;;;;;3.45;2.58;;;;;;;31.46;31.08;100404.13;4439219;32;33934;-83
2021/08/12 08:57:56;;;;;;;4.85;2.22;;;;;;;30.63;29.56;100403.19;4422357;32;33899;-83
2021/08/12 09:00:25;;;;;;;4.43;2.15;;;;;;;30.89;30.82;100408.25;4425758;32;33762;-81
2021/08/12 09:02:53;;;;;;;2.92;1.67;;;;;;;30.56;31.12;100408.50;4453359;32;33182;-81
2021/08/12 09:05:21;;;;;;;3.75;2.33;;;;;;;30.83;28.54;100398.94;4427554;32;33210;-81
2021/08/12 09:07:52;;;;;;;2.60;1.73;;;;;;;30.50;28.40;100411.09;4423489;32;33085;-81
2021/08/12 09:10:21;;;;;;;;;;;;;;;30.81;29.93;100409.19;4436220;32;34110;-81
2021/08/12 09:12:49;;;;;;;3.28;2.40;;;;;;;30.15;30.64;100416.09;4421527;32;31757;-82
2021/08/12 09:15:20;;;;;;;2.05;1.73;;;;;;;30.79;28.83;100413.97;4438648;32;34778;-81
2021/08/12 09:17:50;;;;;;;6.10;1.85;;;;;;;31.22;25.58;100410.66;4436744;32;34098;-82
2021/08/12 09:20:19;;;;;;;3.03;2.25;;;;;;;31.00;27.86;100412.41;4439191;32;34565;-82
2021/08/12 09:23:02;;;;;;;2.65;2.05;;;;;;;30.83;27.72;100414.44;4438266;32;33735;-82
2021/08/12 09:25:35;;;;;;;4.90;2.60;;;;;;;31.11;28.15;100409.25;4450109;32;34904;-82
2021/08/12 09:28:11;;;;;;;3.47;1.70;;;;;;;30.99;27.74;100408.00;4438707;32;34850;-82
2021/08/12 09:30:40;;;;;;;3.95;2.25;;;;;;;30.97;28.86;100418.25;4423085;32;34276;-82
2021/08/12 09:33:13;;;;;;;2.87;2.05;;;;;;;31.19;27.66;100417.31;4438608;32;33029;-83
2021/08/12 09:35:42;;;;;;;2.62;1.77;;;;;;;31.32;28.04;100414.00;4436665;32;34749;-82
2021/08/12 09:38:12;;;;;;;7.80;1.75;;;;;;;31.63;27.93;100413.81;4439915;32;33471;-81
2021/08/12 09:40:40;;;;;;;4.37;2.47;;;;;;;31.48;31.55;100413.00;4437605;32;33972;-82
2021/08/12 09:43:09;;;;;;;3.83;2.05;;;;;;;31.85;26.03;100412.03;4432938;32;33170;-81
2021/08/12 09:45:39;;;;;;;2.85;2.15;;;;;;;32.00;29.13;100412.00;4427421;32;33364;-81
2021/08/12 09:48:17;;;;;;;2.87;2.05;;;;;;;31.94;29.50;100405.44;4437552;32;33398;-81
2021/08/12 09:51:06;;;;;;;2.28;1.95;;;;;;;32.08;27.04;100406.44;4438040;32;34394;-81
2021/08/12 09:53:34;;;;;;;7.15;2.15;;;;;;;32.41;26.63;100401.38;4432289;32;33366;-81
2021/08/12 09:56:10;;;;;;;6.32;1.95;;;;;;;32.61;27.36;100404.28;4451042;32;34720;-82
2021/08/12 09:58:38;;;;;;;2.65;2.17;;;;;;;32.46;28.42;100404.38;4438080;32;35105;-81
2021/08/12 10:01:16;;;;;;;2.47;2.03;;;;;;;32.36;29.44;100404.69;4438006;32;34919;-82
2021/08/12 10:03:46;;;;;;;4.65;2.08;;;;;;;32.42;25.99;100400.31;4424960;32;32781;-81
2021/08/12 10:06:31;;;;;;;3.17;1.92;;;;;;;32.42;27.56;100397.59;4437217;32;33685;-82
2021/08/12 10:09:14;;;;;;;2.80;1.65;;;;;;;32.03;27.42;100397.97;4424166;32;33669;-82
2021/08/12 10:11:42;;;;;;;2.65;1.90;;;;;;;32.41;27.61;100395.06;4421860;32;33863;-81
2021/08/12 10:14:10;;;;;;;3.85;2.67;;;;;;;32.60;27.73;100391.66;4425440;32;34181;-81
2021/08/12 10:16:38;;;;;;;2.60;1.62;;;;;;;31.77;29.04;100396.59;4425410;32;33042;-81
2021/08/12 10:19:09;;;;;;;4.95;1.73;;;;;;;32.32;28.07;100403.34;4426584;32;33552;-81
2021/08/12 10:21:43;;;;;;;4.50;2.30;;;;;;;32.58;29.88;100391.03;4434905;32;34220;-81
2021/08/12 10:24:10;;;;;;;5.53;2.05;;;;;;;33.01;27.64;100391.84;4438013;32;33379;-81
2021/08/12 10:26:38;;;;;;;4.35;2.00;;;;;;;33.37;27.27;100388.91;4437868;32;33947;-82
2021/08/12 10:29:12;;;;;;;3.78;2.50;;;;;;;33.53;25.52;100395.16;4426954;32;33630;-82
2021/08/12 10:31:45;;;;;;;3.58;1.92;;;;;;;33.80;25.89;100394.22;4434761;32;33921;-82
2021/08/12 10:34:13;;;;;;;4.18;2.45;;;;;;;34.09;25.29;100384.06;4422808;32;33762;-82
2021/08/12 10:36:44;;;;;;;2.83;1.70;;;;;;;34.25;28.19;100389.16;4425175;32;33120;-82
2021/08/12 10:39:18;;;;;;;2.65;1.85;;;;;;;34.60;24.85;100387.13;4439219;32;33977;-81
2021/08/12 10:41:46;;;;;;;3.35;2.25;;;;;;;34.43;25.50;100382.25;4431747;32;33901;-81
2021/08/12 10:44:18;;;;;;;2.35;2.00;;;;;;;34.06;24.83;100389.94;4441201;32;33348;-81
2021/08/12 10:46:46;;;;;;;2.15;1.92;;;;;;;33.71;24.72;100387.25;4426168;32;33837;-81
2021/08/12 10:49:34;;;;;;;2.58;1.83;;;;;;;33.20;27.33;100389.47;4426782;32;34714;-82
2021/08/12 10:52:08;;;;;;;4.20;2.35;;;;;;;33.58;27.11;100376.25;4435996;32;33642;-81
2021/08/12 10:54:40;;;;;;;4.28;2.00;;;;;;;33.71;25.18;100380.91;4427589;32;33231;-82
2021/08/12 10:57:20;;;;;;;3.58;2.00;;;;;;;33.95;24.22;100376.84;4424132;32;34057;-82
2021/08/12 10:59:49;;;;;;;3.55;2.35;;;;;;;34.45;25.47;100380.97;4436126;32;33776;-82
2021/08/12 11:02:27;;;;;;;2.25;1.77;;;;;;;34.30;24.76;100383.91;4430236;32;33989;-82
2021/08/12 11:04:58;;;;;;;3.10;2.08;;;;;;;33.81;24.61;100375.94;4441534;32;34267;-81
2021/08/12 11:07:36;;;;;;;2.72;1.95;;;;;;;33.88;25.06;100383.09;4422112;32;33422;-82
2021/08/12 11:10:05;;;;;;;3.70;2.50;;;;;;;34.07;26.70;100375.19;4436807;32;34796;-82
2021/08/12 11:12:52;;;;;;;6.03;2.17;;;;;;;34.17;25.24;100374.78;4422241;32;34372;-82
2021/08/12 11:15:38;;;;;;;3.85;1.95;;;;;;;34.48;23.41;100375.09;4436329;32;33162;-82
2021/08/12 11:18:11;;;;;;;2.87;1.75;;;;;;;34.48;25.05;100366.03;4438003;32;33672;-82
2021/08/12 11:20:44;;;;;;;3.60;2.08;;;;;;;34.55;23.68;100373.19;4425054;32;34055;-81
2021/08/12 11:23:21;;;;;;;2.50;1.85;;;;;;;34.31;24.38;100371.03;4411434;32;34622;-83
2021/08/12 11:26:03;;;;;;;4.60;2.33;;;;;;;34.18;24.63;100377.31;4438704;32;34241;-82
2021/08/12 11:28:41;;;;;;;3.12;2.15;;;;;;;34.07;24.43;100365.06;4411593;32;33972;-83
2021/08/12 11:31:28;;;;;;;3.70;1.98;;;;;;;33.80;24.15;100360.50;4435218;32;34103;-82
2021/08/12 11:34:02;;;;;;;3.42;2.47;;;;;;;33.43;24.09;100373.63;4428018;32;34565;-82
2021/08/12 11:36:38;;;;;;;3.28;1.92;;;;;;;32.96;25.74;100366.16;4437967;32;33594;-82
2021/08/12 11:39:08;;;;;;;2.55;1.75;;;;;;;33.04;26.32;100368.69;4434531;32;33663;-83